sensor_id;sensor_type;location;lat;lon;timestamp;pressure;altitude;pressure_sealevel;temperature;humidity
42519;BME280;28147;47.520;18.920;2024-03-02T00:00:06;97828.53;;;11.58;79.30
42519;BME280;28147;47.520;18.920;2024-03-02T00:02:43;97828.50;;;11.53;79.34
42519;BME280;28147;47.520;18.920;2024-03-02T00:05:18;97834.16;;;11.29;81.40
42519;BME280;28147;47.520;18.920;2024-03-02T00:08:13;97837.28;;;11.53;80.04
42519;BME280;28147;47.520;18.920;2024-03-02T00:10:41;97837.16;;;11.70;79.01
42519;BME280;28147;47.520;18.920;2024-03-02T00:13:07;97836.91;;;11.72;78.57
42519;BME280;28147;47.520;18.920;2024-03-02T00:15:51;97820.16;;;11.76;78.00
42519;BME280;28147;47.520;18.920;2024-03-02T00:18:21;97823.16;;;11.85;77.71
42519;BME280;28147;47.520;18.920;2024-03-02T00:20:52;97826.19;;;11.66;78.38
42519;BME280;28147;47.520;18.920;2024-03-02T00:23:18;97817.66;;;11.64;78.33
42519;BME280;28147;47.520;18.920;2024-03-02T00:25:48;97817.19;;;11.73;77.96
42519;BME280;28147;47.520;18.920;2024-03-02T00:28:17;97813.91;;;11.65;77.62
42519;BME280;28147;47.520;18.920;2024-03-02T00:33:44;97806.00;;;11.76;77.62
42519;BME280;28147;47.520;18.920;2024-03-02T00:36:11;97807.47;;;11.56;78.35
42519;BME280;28147;47.520;18.920;2024-03-02T00:38:55;97812.78;;;11.56;78.41
42519;BME280;28147;47.520;18.920;2024-03-02T00:41:29;97808.28;;;11.62;78.11
42519;BME280;28147;47.520;18.920;2024-03-02T00:44:06;97809.34;;;11.61;78.06
42519;BME280;28147;47.520;18.920;2024-03-02T00:46:36;97801.34;;;11.56;77.96
42519;BME280;28147;47.520;18.920;2024-03-02T00:49:03;97813.84;;;11.55;78.14
42519;BME280;28147;47.520;18.920;2024-03-02T00:51:33;97812.31;;;11.64;77.77
42519;BME280;28147;47.520;18.920;2024-03-02T00:54:01;97812.53;;;11.58;78.13
42519;BME280;28147;47.520;18.920;2024-03-02T00:56:29;97816.72;;;11.49;78.86
42519;BME280;28147;47.520;18.920;2024-03-02T00:58:55;97813.59;;;11.57;77.95
42519;BME280;28147;47.520;18.920;2024-03-02T01:01:20;97800.22;;;11.52;78.55
42519;BME280;28147;47.520;18.920;2024-03-02T01:03:46;97811.75;;;11.62;78.10
42519;BME280;28147;47.520;18.920;2024-03-02T01:06:12;97818.38;;;11.55;78.40
42519;BME280;28147;47.520;18.920;2024-03-02T01:08:38;97814.09;;;11.54;78.12
42519;BME280;28147;47.520;18.920;2024-03-02T01:11:04;97824.66;;;11.43;78.18
42519;BME280;28147;47.520;18.920;2024-03-02T01:13:30;97809.84;;;11.53;78.31
42519;BME280;28147;47.520;18.920;2024-03-02T01:15:56;97811.13;;;11.50;78.38
42519;BME280;28147;47.520;18.920;2024-03-02T01:18:21;97804.03;;;11.61;77.58
42519;BME280;28147;47.520;18.920;2024-03-02T01:20:47;97795.13;;;11.50;77.65
42519;BME280;28147;47.520;18.920;2024-03-02T01:23:12;97803.78;;;11.30;78.61
42519;BME280;28147;47.520;18.920;2024-03-02T01:25:38;97819.78;;;11.35;78.74
42519;BME280;28147;47.520;18.920;2024-03-02T01:28:04;97812.06;;;11.34;78.90
42519;BME280;28147;47.520;18.920;2024-03-02T01:30:29;97796.13;;;11.39;78.59
42519;BME280;28147;47.520;18.920;2024-03-02T01:32:55;97792.63;;;11.33;78.53
42519;BME280;28147;47.520;18.920;2024-03-02T01:35:20;97800.06;;;11.36;77.79
42519;BME280;28147;47.520;18.920;2024-03-02T01:37:45;97782.16;;;11.27;78.05
42519;BME280;28147;47.520;18.920;2024-03-02T01:40:11;97789.97;;;11.38;77.54
42519;BME280;28147;47.520;18.920;2024-03-02T01:42:39;97785.59;;;11.22;78.26
42519;BME280;28147;47.520;18.920;2024-03-02T01:45:08;97780.16;;;11.12;78.71
42519;BME280;28147;47.520;18.920;2024-03-02T01:47:34;97786.56;;;11.16;78.80
42519;BME280;28147;47.520;18.920;2024-03-02T01:49:59;97776.41;;;11.13;78.30
42519;BME280;28147;47.520;18.920;2024-03-02T01:52:25;97756.97;;;11.12;78.40
42519;BME280;28147;47.520;18.920;2024-03-02T01:54:50;97767.03;;;11.05;79.37
42519;BME280;28147;47.520;18.920;2024-03-02T01:57:16;97767.28;;;11.04;79.15
42519;BME280;28147;47.520;18.920;2024-03-02T01:59:42;97762.91;;;10.92;79.11
42519;BME280;28147;47.520;18.920;2024-03-02T02:02:07;97780.03;;;11.02;79.08
42519;BME280;28147;47.520;18.920;2024-03-02T02:04:33;97771.72;;;10.93;79.47
42519;BME280;28147;47.520;18.920;2024-03-02T02:06:59;97764.66;;;10.82;79.85
42519;BME280;28147;47.520;18.920;2024-03-02T02:09:24;97777.69;;;11.05;78.43
42519;BME280;28147;47.520;18.920;2024-03-02T02:11:50;97787.19;;;10.96;78.49
42519;BME280;28147;47.520;18.920;2024-03-02T02:14:16;97795.53;;;11.05;78.40
42519;BME280;28147;47.520;18.920;2024-03-02T02:16:41;97788.28;;;11.00;78.38
42519;BME280;28147;47.520;18.920;2024-03-02T02:19:06;97798.25;;;10.61;80.74
42519;BME280;28147;47.520;18.920;2024-03-02T02:21:32;97801.31;;;10.75;79.42
42519;BME280;28147;47.520;18.920;2024-03-02T02:23:57;97808.13;;;10.87;79.08
42519;BME280;28147;47.520;18.920;2024-03-02T02:26:22;97812.06;;;10.80;76.95
42519;BME280;28147;47.520;18.920;2024-03-02T02:28:48;97812.22;;;10.73;76.84
42519;BME280;28147;47.520;18.920;2024-03-02T02:31:13;97810.19;;;10.80;76.24
42519;BME280;28147;47.520;18.920;2024-03-02T02:33:42;97805.47;;;10.87;74.87
42519;BME280;28147;47.520;18.920;2024-03-02T02:36:08;97812.94;;;10.90;74.38
42519;BME280;28147;47.520;18.920;2024-03-02T02:38:38;97825.28;;;10.96;73.57
42519;BME280;28147;47.520;18.920;2024-03-02T02:41:05;97814.28;;;11.15;73.14
42519;BME280;28147;47.520;18.920;2024-03-02T02:43:30;97812.00;;;11.29;72.48
42519;BME280;28147;47.520;18.920;2024-03-02T02:45:56;97825.47;;;11.17;72.53
42519;BME280;28147;47.520;18.920;2024-03-02T02:48:21;97813.31;;;10.99;73.25
42519;BME280;28147;47.520;18.920;2024-03-02T02:50:46;97811.31;;;11.11;72.76
42519;BME280;28147;47.520;18.920;2024-03-02T02:53:11;97805.00;;;11.17;72.68
42519;BME280;28147;47.520;18.920;2024-03-02T02:55:39;97809.34;;;11.29;72.57
42519;BME280;28147;47.520;18.920;2024-03-02T02:58:09;97800.94;;;11.42;71.98
42519;BME280;28147;47.520;18.920;2024-03-02T03:00:34;97812.28;;;11.32;72.59
42519;BME280;28147;47.520;18.920;2024-03-02T03:02:59;97812.22;;;10.95;72.19
42519;BME280;28147;47.520;18.920;2024-03-02T03:05:25;97804.75;;;10.70;73.16
42519;BME280;28147;47.520;18.920;2024-03-02T03:07:50;97800.16;;;10.87;73.42
42519;BME280;28147;47.520;18.920;2024-03-02T03:10:16;97807.19;;;10.99;73.70
42519;BME280;28147;47.520;18.920;2024-03-02T03:12:42;97812.56;;;11.04;73.77
42519;BME280;28147;47.520;18.920;2024-03-02T03:15:10;97805.22;;;10.67;74.01
42519;BME280;28147;47.520;18.920;2024-03-02T03:17:36;97818.69;;;11.04;72.58
42519;BME280;28147;47.520;18.920;2024-03-02T03:20:02;97805.13;;;11.06;71.13
42519;BME280;28147;47.520;18.920;2024-03-02T03:22:29;97810.72;;;11.04;71.17
42519;BME280;28147;47.520;18.920;2024-03-02T03:24:54;97821.38;;;10.82;71.98
42519;BME280;28147;47.520;18.920;2024-03-02T03:27:20;97817.84;;;10.99;71.38
42519;BME280;28147;47.520;18.920;2024-03-02T03:29:45;97823.66;;;10.95;71.28
42519;BME280;28147;47.520;18.920;2024-03-02T03:32:11;97817.59;;;11.00;70.85
42519;BME280;28147;47.520;18.920;2024-03-02T03:34:36;97808.88;;;11.10;70.68
42519;BME280;28147;47.520;18.920;2024-03-02T03:37:02;97819.25;;;11.33;70.03
42519;BME280;28147;47.520;18.920;2024-03-02T03:39:28;97816.53;;;11.28;70.29
42519;BME280;28147;47.520;18.920;2024-03-02T03:41:53;97814.94;;;11.27;70.46
42519;BME280;28147;47.520;18.920;2024-03-02T03:44:19;97815.91;;;11.21;70.80
42519;BME280;28147;47.520;18.920;2024-03-02T03:46:44;97822.38;;;11.25;70.32
42519;BME280;28147;47.520;18.920;2024-03-02T03:49:09;97818.81;;;11.14;70.99
42519;BME280;28147;47.520;18.920;2024-03-02T03:51:35;97816.19;;;10.48;73.55
42519;BME280;28147;47.520;18.920;2024-03-02T03:54:00;97819.22;;;10.79;72.66
42519;BME280;28147;47.520;18.920;2024-03-02T03:56:26;97823.50;;;10.80;73.75
42519;BME280;28147;47.520;18.920;2024-03-02T03:58:51;97820.88;;;10.63;74.17
42519;BME280;28147;47.520;18.920;2024-03-02T04:01:17;97824.63;;;10.62;73.81
42519;BME280;28147;47.520;18.920;2024-03-02T04:03:44;97824.19;;;10.70;74.13
42519;BME280;28147;47.520;18.920;2024-03-02T04:06:10;97822.94;;;10.78;74.64
42519;BME280;28147;47.520;18.920;2024-03-02T04:08:35;97822.78;;;10.90;73.93
42519;BME280;28147;47.520;18.920;2024-03-02T04:11:00;97840.94;;;10.71;75.00
42519;BME280;28147;47.520;18.920;2024-03-02T04:13:27;97832.59;;;10.84;74.60
42519;BME280;28147;47.520;18.920;2024-03-02T04:15:53;97837.56;;;10.54;76.48
42519;BME280;28147;47.520;18.920;2024-03-02T04:18:18;97839.69;;;10.57;76.80
42519;BME280;28147;47.520;18.920;2024-03-02T04:20:44;97841.88;;;10.60;76.79
42519;BME280;28147;47.520;18.920;2024-03-02T04:23:09;97842.66;;;10.60;76.78
42519;BME280;28147;47.520;18.920;2024-03-02T04:25:34;97845.91;;;10.62;76.36
42519;BME280;28147;47.520;18.920;2024-03-02T04:28:01;97848.81;;;10.61;76.47
42519;BME280;28147;47.520;18.920;2024-03-02T04:30:26;97845.66;;;10.42;77.49
42519;BME280;28147;47.520;18.920;2024-03-02T04:32:51;97850.34;;;10.35;79.08
42519;BME280;28147;47.520;18.920;2024-03-02T04:35:17;97842.66;;;10.21;79.74
42519;BME280;28147;47.520;18.920;2024-03-02T04:37:42;97843.66;;;10.15;80.38
42519;BME280;28147;47.520;18.920;2024-03-02T04:40:08;97838.09;;;10.17;79.15
42519;BME280;28147;47.520;18.920;2024-03-02T04:42:34;97847.38;;;10.31;79.40
42519;BME280;28147;47.520;18.920;2024-03-02T04:45:00;97842.91;;;10.20;79.95
42519;BME280;28147;47.520;18.920;2024-03-02T04:47:25;97844.38;;;10.28;79.63
42519;BME280;28147;47.520;18.920;2024-03-02T04:49:50;97845.72;;;10.30;80.43
42519;BME280;28147;47.520;18.920;2024-03-02T04:52:16;97846.88;;;10.34;80.83
42519;BME280;28147;47.520;18.920;2024-03-02T04:54:41;97855.72;;;10.40;80.83
42519;BME280;28147;47.520;18.920;2024-03-02T04:57:25;97849.44;;;10.29;81.27
42519;BME280;28147;47.520;18.920;2024-03-02T04:59:50;97858.00;;;10.31;81.38
42519;BME280;28147;47.520;18.920;2024-03-02T05:02:16;97847.13;;;10.33;82.58
42519;BME280;28147;47.520;18.920;2024-03-02T05:04:41;97853.38;;;10.43;82.09
42519;BME280;28147;47.520;18.920;2024-03-02T05:07:07;97853.38;;;10.43;80.94
42519;BME280;28147;47.520;18.920;2024-03-02T05:09:32;97849.50;;;10.51;81.47
42519;BME280;28147;47.520;18.920;2024-03-02T05:11:58;97847.00;;;11.37;85.45
42519;BME280;28147;47.520;18.920;2024-03-02T05:14:42;97852.47;;;10.99;81.38
42519;BME280;28147;47.520;18.920;2024-03-02T05:17:07;97846.53;;;10.91;80.12
42519;BME280;28147;47.520;18.920;2024-03-02T05:19:32;97852.03;;;10.85;80.08
42519;BME280;28147;47.520;18.920;2024-03-02T05:21:57;97860.69;;;10.75;82.26
42519;BME280;28147;47.520;18.920;2024-03-02T05:24:23;97843.38;;;10.51;82.72
42519;BME280;28147;47.520;18.920;2024-03-02T05:26:48;97847.56;;;10.46;83.13
42519;BME280;28147;47.520;18.920;2024-03-02T05:29:14;97856.13;;;10.70;82.10
42519;BME280;28147;47.520;18.920;2024-03-02T05:31:39;97848.00;;;10.60;81.89
42519;BME280;28147;47.520;18.920;2024-03-02T05:34:05;97860.00;;;10.41;82.90
42519;BME280;28147;47.520;18.920;2024-03-02T05:36:31;97849.59;;;10.39;84.37
42519;BME280;28147;47.520;18.920;2024-03-02T05:38:56;97852.19;;;10.56;83.74
42519;BME280;28147;47.520;18.920;2024-03-02T05:41:22;97835.97;;;10.19;84.18
42519;BME280;28147;47.520;18.920;2024-03-02T05:43:47;97847.06;;;10.28;86.24
42519;BME280;28147;47.520;18.920;2024-03-02T05:46:13;97835.38;;;10.51;82.96
42519;BME280;28147;47.520;18.920;2024-03-02T05:48:38;97852.94;;;10.52;82.20
42519;BME280;28147;47.520;18.920;2024-03-02T05:51:03;97846.72;;;10.63;82.41
42519;BME280;28147;47.520;18.920;2024-03-02T05:53:29;97844.72;;;10.75;83.15
42519;BME280;28147;47.520;18.920;2024-03-02T05:55:54;97848.38;;;10.91;83.40
42519;BME280;28147;47.520;18.920;2024-03-02T05:58:21;97839.03;;;10.88;84.41
42519;BME280;28147;47.520;18.920;2024-03-02T06:01:13;97845.13;;;10.84;85.30
42519;BME280;28147;47.520;18.920;2024-03-02T06:03:38;97852.16;;;10.73;85.41
42519;BME280;28147;47.520;18.920;2024-03-02T06:06:04;97864.97;;;10.54;85.97
42519;BME280;28147;47.520;18.920;2024-03-02T06:08:29;97857.34;;;10.63;86.01
42519;BME280;28147;47.520;18.920;2024-03-02T06:10:54;97866.41;;;10.62;85.30
42519;BME280;28147;47.520;18.920;2024-03-02T06:13:21;97867.56;;;10.71;85.08
42519;BME280;28147;47.520;18.920;2024-03-02T06:15:46;97883.63;;;10.76;84.87
42519;BME280;28147;47.520;18.920;2024-03-02T06:18:11;97897.13;;;10.53;86.30
42519;BME280;28147;47.520;18.920;2024-03-02T06:20:37;97882.84;;;10.59;86.28
42519;BME280;28147;47.520;18.920;2024-03-02T06:23:03;97886.69;;;10.46;86.86
42519;BME280;28147;47.520;18.920;2024-03-02T06:25:28;97892.69;;;10.58;85.88
42519;BME280;28147;47.520;18.920;2024-03-02T06:27:54;97890.91;;;10.64;84.64
42519;BME280;28147;47.520;18.920;2024-03-02T06:30:19;97891.28;;;10.73;83.74
42519;BME280;28147;47.520;18.920;2024-03-02T06:32:44;97874.75;;;10.70;83.91
42519;BME280;28147;47.520;18.920;2024-03-02T06:35:10;97893.75;;;10.79;84.14
42519;BME280;28147;47.520;18.920;2024-03-02T06:37:36;97883.66;;;10.59;85.20
42519;BME280;28147;47.520;18.920;2024-03-02T06:40:02;97893.75;;;10.57;85.36
42519;BME280;28147;47.520;18.920;2024-03-02T06:42:27;97887.22;;;10.65;84.59
42519;BME280;28147;47.520;18.920;2024-03-02T06:44:58;97894.28;;;10.76;85.32
42519;BME280;28147;47.520;18.920;2024-03-02T06:47:23;97880.03;;;10.65;84.89
42519;BME280;28147;47.520;18.920;2024-03-02T06:49:48;97898.72;;;10.70;85.20
42519;BME280;28147;47.520;18.920;2024-03-02T06:52:13;97897.03;;;10.64;85.71
42519;BME280;28147;47.520;18.920;2024-03-02T06:54:39;97889.25;;;10.58;85.97
42519;BME280;28147;47.520;18.920;2024-03-02T06:57:04;97893.66;;;10.52;86.76
42519;BME280;28147;47.520;18.920;2024-03-02T06:59:29;97899.47;;;10.49;86.59
42519;BME280;28147;47.520;18.920;2024-03-02T07:01:55;97892.44;;;10.60;86.66
42519;BME280;28147;47.520;18.920;2024-03-02T07:04:20;97902.66;;;10.68;85.61
42519;BME280;28147;47.520;18.920;2024-03-02T07:06:45;97897.91;;;10.70;86.37
42519;BME280;28147;47.520;18.920;2024-03-02T07:09:11;97898.47;;;10.72;86.43
42519;BME280;28147;47.520;18.920;2024-03-02T07:11:36;97896.91;;;10.54;87.69
42519;BME280;28147;47.520;18.920;2024-03-02T07:14:02;97897.78;;;10.82;86.66
42519;BME280;28147;47.520;18.920;2024-03-02T07:16:27;97898.97;;;10.69;87.26
42519;BME280;28147;47.520;18.920;2024-03-02T07:18:58;97897.97;;;10.75;86.72
42519;BME280;28147;47.520;18.920;2024-03-02T07:21:24;97893.22;;;10.38;88.15
42519;BME280;28147;47.520;18.920;2024-03-02T07:23:50;97895.63;;;10.40;88.17
42519;BME280;28147;47.520;18.920;2024-03-02T07:26:15;97897.16;;;10.19;90.43
42519;BME280;28147;47.520;18.920;2024-03-02T07:28:43;97901.44;;;10.37;89.30
42519;BME280;28147;47.520;18.920;2024-03-02T07:31:09;97897.44;;;10.56;88.43
42519;BME280;28147;47.520;18.920;2024-03-02T07:33:35;97889.03;;;10.09;89.49
42519;BME280;28147;47.520;18.920;2024-03-02T07:36:00;97907.28;;;10.56;89.15
42519;BME280;28147;47.520;18.920;2024-03-02T07:38:28;97907.38;;;10.61;88.42
42519;BME280;28147;47.520;18.920;2024-03-02T07:40:53;97900.38;;;10.21;89.32
42519;BME280;28147;47.520;18.920;2024-03-02T07:43:19;97900.63;;;10.36;89.67
42519;BME280;28147;47.520;18.920;2024-03-02T07:45:45;97909.50;;;10.42;89.93
42519;BME280;28147;47.520;18.920;2024-03-02T07:48:11;97908.84;;;10.18;91.89
42519;BME280;28147;47.520;18.920;2024-03-02T07:50:36;97907.06;;;10.07;91.65
42519;BME280;28147;47.520;18.920;2024-03-02T07:53:03;97912.06;;;10.54;90.07
42519;BME280;28147;47.520;18.920;2024-03-02T07:55:29;97923.19;;;10.34;91.26
42519;BME280;28147;47.520;18.920;2024-03-02T07:57:55;97916.28;;;10.50;90.82
42519;BME280;28147;47.520;18.920;2024-03-02T08:00:21;97920.91;;;10.59;90.34
42519;BME280;28147;47.520;18.920;2024-03-02T08:02:47;97919.53;;;10.57;91.32
42519;BME280;28147;47.520;18.920;2024-03-02T08:05:13;97924.00;;;10.51;91.56
42519;BME280;28147;47.520;18.920;2024-03-02T08:07:38;97928.78;;;10.32;92.33
42519;BME280;28147;47.520;18.920;2024-03-02T08:10:04;97926.75;;;10.39;92.42
42519;BME280;28147;47.520;18.920;2024-03-02T08:12:30;97927.16;;;10.48;92.08
42519;BME280;28147;47.520;18.920;2024-03-02T08:14:55;97928.53;;;10.17;93.07
42519;BME280;28147;47.520;18.920;2024-03-02T08:17:21;97932.47;;;10.14;93.52
42519;BME280;28147;47.520;18.920;2024-03-02T08:19:46;97934.31;;;10.47;92.88
42519;BME280;28147;47.520;18.920;2024-03-02T08:22:13;97923.03;;;10.40;92.35
42519;BME280;28147;47.520;18.920;2024-03-02T08:24:39;97929.16;;;10.41;91.79
42519;BME280;28147;47.520;18.920;2024-03-02T08:27:04;97928.31;;;10.35;92.24
42519;BME280;28147;47.520;18.920;2024-03-02T08:29:29;97935.34;;;9.96;94.30
42519;BME280;28147;47.520;18.920;2024-03-02T08:31:55;97928.84;;;10.20;93.35
42519;BME280;28147;47.520;18.920;2024-03-02T08:34:20;97930.06;;;10.13;94.49
42519;BME280;28147;47.520;18.920;2024-03-02T08:36:46;97931.75;;;10.36;93.74
42519;BME280;28147;47.520;18.920;2024-03-02T08:39:11;97927.72;;;10.33;93.82
42519;BME280;28147;47.520;18.920;2024-03-02T08:41:46;97931.50;;;10.54;92.90
42519;BME280;28147;47.520;18.920;2024-03-02T08:44:13;97935.22;;;10.53;93.54
42519;BME280;28147;47.520;18.920;2024-03-02T08:46:41;97931.66;;;10.47;93.79
42519;BME280;28147;47.520;18.920;2024-03-02T08:49:07;97932.41;;;10.26;93.77
42519;BME280;28147;47.520;18.920;2024-03-02T08:51:33;97934.88;;;10.16;95.05
42519;BME280;28147;47.520;18.920;2024-03-02T08:53:58;97928.84;;;10.20;95.54
42519;BME280;28147;47.520;18.920;2024-03-02T08:56:24;97933.25;;;10.15;94.64
42519;BME280;28147;47.520;18.920;2024-03-02T08:58:51;97929.00;;;10.47;93.76
42519;BME280;28147;47.520;18.920;2024-03-02T09:01:17;97931.50;;;10.54;93.56
42519;BME280;28147;47.520;18.920;2024-03-02T09:03:43;97934.06;;;10.49;95.06
42519;BME280;28147;47.520;18.920;2024-03-02T09:06:12;97919.84;;;10.38;94.55
42519;BME280;28147;47.520;18.920;2024-03-02T09:08:37;97933.34;;;10.20;95.08
42519;BME280;28147;47.520;18.920;2024-03-02T09:11:04;97921.66;;;10.21;96.63
42519;BME280;28147;47.520;18.920;2024-03-02T09:13:29;97934.97;;;10.21;95.93
42519;BME280;28147;47.520;18.920;2024-03-02T09:15:55;97935.59;;;10.45;95.49
42519;BME280;28147;47.520;18.920;2024-03-02T09:18:20;97938.78;;;10.42;95.94
42519;BME280;28147;47.520;18.920;2024-03-02T09:20:45;97928.78;;;10.32;94.78
42519;BME280;28147;47.520;18.920;2024-03-02T09:23:11;97936.19;;;10.47;95.04
42519;BME280;28147;47.520;18.920;2024-03-02T09:25:36;97935.72;;;10.50;93.97
42519;BME280;28147;47.520;18.920;2024-03-02T09:28:02;97939.81;;;10.41;95.45
42519;BME280;28147;47.520;18.920;2024-03-02T09:30:28;97940.44;;;10.65;94.53
42519;BME280;28147;47.520;18.920;2024-03-02T09:32:53;97940.59;;;10.58;94.00
42519;BME280;28147;47.520;18.920;2024-03-02T09:35:18;97939.16;;;10.51;95.28
42519;BME280;28147;47.520;18.920;2024-03-02T09:37:44;97928.78;;;10.71;94.25
42519;BME280;28147;47.520;18.920;2024-03-02T09:40:10;97948.75;;;10.52;93.98
42519;BME280;28147;47.520;18.920;2024-03-02T09:42:35;97948.53;;;10.53;94.15
42519;BME280;28147;47.520;18.920;2024-03-02T09:45:02;97937.69;;;9.92;96.04
42519;BME280;28147;47.520;18.920;2024-03-02T09:47:27;97946.56;;;9.81;98.28
42519;BME280;28147;47.520;18.920;2024-03-02T09:49:52;97939.09;;;10.12;97.84
42519;BME280;28147;47.520;18.920;2024-03-02T09:52:18;97941.94;;;10.39;95.86
42519;BME280;28147;47.520;18.920;2024-03-02T09:54:44;97946.97;;;10.07;97.32
42519;BME280;28147;47.520;18.920;2024-03-02T09:57:09;97934.88;;;10.16;96.75
42519;BME280;28147;47.520;18.920;2024-03-02T09:59:35;97941.97;;;9.93;98.62
42519;BME280;28147;47.520;18.920;2024-03-02T10:02:02;97938.41;;;9.88;98.90
42519;BME280;28147;47.520;18.920;2024-03-02T10:04:29;97933.84;;;10.00;98.59
42519;BME280;28147;47.520;18.920;2024-03-02T10:09:38;97936.44;;;10.29;96.78
42519;BME280;28147;47.520;18.920;2024-03-02T10:13:47;97936.56;;;10.22;97.43
42519;BME280;28147;47.520;18.920;2024-03-02T10:16:14;97940.88;;;10.40;97.42
42519;BME280;28147;47.520;18.920;2024-03-02T10:18:39;97931.72;;;10.53;95.71
42519;BME280;28147;47.520;18.920;2024-03-02T10:21:13;97941.75;;;10.29;96.74
42519;BME280;28147;47.520;18.920;2024-03-02T10:23:40;97944.81;;;10.20;96.31
42519;BME280;28147;47.520;18.920;2024-03-02T10:26:18;97943.81;;;10.10;97.76
42519;BME280;28147;47.520;18.920;2024-03-02T10:28:46;97931.81;;;10.07;97.12
42519;BME280;28147;47.520;18.920;2024-03-02T10:31:13;97946.38;;;9.88;98.49
42519;BME280;28147;47.520;18.920;2024-03-02T10:33:38;97937.31;;;10.01;98.38
42519;BME280;28147;47.520;18.920;2024-03-02T10:36:04;97936.88;;;9.92;98.11
42519;BME280;28147;47.520;18.920;2024-03-02T10:38:30;97937.06;;;10.02;96.89
42519;BME280;28147;47.520;18.920;2024-03-02T10:40:57;97926.72;;;10.22;96.01
42519;BME280;28147;47.520;18.920;2024-03-02T10:43:24;97924.81;;;10.18;95.77
42519;BME280;28147;47.520;18.920;2024-03-02T10:45:51;97935.06;;;10.26;96.32
42519;BME280;28147;47.520;18.920;2024-03-02T10:48:17;97928.34;;;10.23;96.59
42519;BME280;28147;47.520;18.920;2024-03-02T10:50:43;97937.50;;;10.28;95.58
42519;BME280;28147;47.520;18.920;2024-03-02T10:53:08;97925.28;;;10.48;95.20
42519;BME280;28147;47.520;18.920;2024-03-02T10:55:33;97931.13;;;10.45;95.40
42519;BME280;28147;47.520;18.920;2024-03-02T10:58:00;97923.22;;;10.00;97.21
42519;BME280;28147;47.520;18.920;2024-03-02T11:00:32;97905.22;;;10.07;96.86
42519;BME280;28147;47.520;18.920;2024-03-02T11:03:05;97928.72;;;10.27;96.83
42519;BME280;28147;47.520;18.920;2024-03-02T11:05:38;97924.81;;;10.18;98.21
42519;BME280;28147;47.520;18.920;2024-03-02T11:08:08;97927.06;;;10.09;98.80
42519;BME280;28147;47.520;18.920;2024-03-02T11:10:43;97920.63;;;10.39;97.43
42519;BME280;28147;47.520;18.920;2024-03-02T11:13:12;97916.59;;;10.19;97.23
42519;BME280;28147;47.520;18.920;2024-03-02T11:15:39;97924.09;;;10.39;96.92
42519;BME280;28147;47.520;18.920;2024-03-02T11:18:06;97911.22;;;10.31;96.31
42519;BME280;28147;47.520;18.920;2024-03-02T11:20:36;97913.03;;;10.47;95.73
42519;BME280;28147;47.520;18.920;2024-03-02T11:23:07;97913.94;;;10.36;96.40
42519;BME280;28147;47.520;18.920;2024-03-02T11:25:33;97899.69;;;10.26;96.83
42519;BME280;28147;47.520;18.920;2024-03-02T11:28:00;97909.56;;;10.47;95.86
42519;BME280;28147;47.520;18.920;2024-03-02T11:32:58;97901.28;;;10.43;95.02
42519;BME280;28147;47.520;18.920;2024-03-02T11:35:27;97912.78;;;10.49;93.57
42519;BME280;28147;47.520;18.920;2024-03-02T11:37:56;97900.06;;;10.51;94.50
42519;BME280;28147;47.520;18.920;2024-03-02T11:40:27;97901.47;;;10.59;94.42
42519;BME280;28147;47.520;18.920;2024-03-02T11:42:53;97914.22;;;10.57;95.67
42519;BME280;28147;47.520;18.920;2024-03-02T11:45:26;97905.13;;;10.53;93.78
42519;BME280;28147;47.520;18.920;2024-03-02T11:47:53;97903.69;;;10.45;94.41
42519;BME280;28147;47.520;18.920;2024-03-02T11:50:51;97910.75;;;10.56;93.85
42519;BME280;28147;47.520;18.920;2024-03-02T11:53:17;97903.34;;;10.58;94.65
42519;BME280;28147;47.520;18.920;2024-03-02T11:55:44;97906.53;;;10.77;94.17
42519;BME280;28147;47.520;18.920;2024-03-02T11:58:12;97886.38;;;10.64;93.74
42519;BME280;28147;47.520;18.920;2024-03-02T12:00:37;97894.94;;;10.88;92.88
42519;BME280;28147;47.520;18.920;2024-03-02T12:03:07;97880.22;;;10.81;91.65
42519;BME280;28147;47.520;18.920;2024-03-02T12:05:33;97907.25;;;10.94;92.40
42519;BME280;28147;47.520;18.920;2024-03-02T12:08:04;97897.47;;;10.78;91.51
42519;BME280;28147;47.520;18.920;2024-03-02T12:10:30;97912.09;;;10.98;91.28
42519;BME280;28147;47.520;18.920;2024-03-02T12:13:01;97901.88;;;10.89;90.92
42519;BME280;28147;47.520;18.920;2024-03-02T12:15:28;97901.13;;;10.94;92.64
42519;BME280;28147;47.520;18.920;2024-03-02T12:17:59;97886.16;;;10.88;92.35
42519;BME280;28147;47.520;18.920;2024-03-02T12:20:30;97900.94;;;11.01;92.02
42519;BME280;28147;47.520;18.920;2024-03-02T12:22:59;97905.16;;;11.18;90.01
42519;BME280;28147;47.520;18.920;2024-03-02T12:25:26;97894.31;;;11.25;90.04
42519;BME280;28147;47.520;18.920;2024-03-02T12:27:57;97900.06;;;11.17;90.28
42519;BME280;28147;47.520;18.920;2024-03-02T12:30:24;97885.19;;;11.21;89.43
42519;BME280;28147;47.520;18.920;2024-03-02T12:32:51;97904.91;;;11.20;91.09
42519;BME280;28147;47.520;18.920;2024-03-02T12:35:17;97906.53;;;10.99;89.29
42519;BME280;28147;47.520;18.920;2024-03-02T12:37:50;97904.22;;;10.86;91.34
42519;BME280;28147;47.520;18.920;2024-03-02T12:40:18;97902.44;;;10.53;93.79
42519;BME280;28147;47.520;18.920;2024-03-02T12:42:44;97908.41;;;10.60;92.34
42519;BME280;28147;47.520;18.920;2024-03-02T12:45:10;97910.44;;;10.53;93.04
42519;BME280;28147;47.520;18.920;2024-03-02T12:47:37;97899.25;;;10.34;93.68
42519;BME280;28147;47.520;18.920;2024-03-02T12:50:03;97911.97;;;10.65;94.08
42519;BME280;28147;47.520;18.920;2024-03-02T12:52:29;97889.03;;;10.64;94.40
42519;BME280;28147;47.520;18.920;2024-03-02T12:54:56;97894.69;;;10.68;94.21
42519;BME280;28147;47.520;18.920;2024-03-02T12:57:27;97908.81;;;10.90;92.56